Alt del Madrigal, Puerto Rico
Current Conditions -  °F | °C
As of 10:50 AM on Friday 21 Nov 2014 (Local Time) from TJPS Reporting Station
Few Clouds Few Clouds  
Wind Chill: 90°   Ceiling: Unl
Heat Index: 98°   Visibility: 10mi
Dew Point: 73°   Wind: 7mph
Humidity: 59%   Direction: 60°ENE
Pressure: 29.97"   Gusts: NA
Location:  18.0152°N, 66.6246°W
Report Text: TJPS 211450Z 06006KT 10SM FEW030 32/23 A2997
Loading
Personal Weather Stations






























Interactive Weather Map New forecast layout! Learn more

10-Day Weather Forecast

Advertisements
Track Severe Weather on mobile